Terminal Aerodrome Forecast
Issued by NWS

Home | Current Version | Previous Version | Text Only | Print | Product List | Glossary On
Versions: 1 2 3 4 5 6 7 8 9 10 11 12 13 14 15 16 17 18 19 20 21 22 23 24
000
FTUS41 KPBZ 200521
TAFMGW
TAF
KMGW 200521Z 2006/2106 18006KT P6SM BKN060 WS020/22040KT
     FM201200 20009KT P6SM SCT060 WS020/22040KT
     FM201500 21010G20KT P6SM SCT250
     FM202200 18006KT P6SM SCT250=

USA.gov is the U.S. government's official web portal to all federal, state and local government web resources and services.